createdAt,value
2019-06-26T00:03:37.182Z,51.70
2019-06-26T00:06:18.735Z,52.87
2019-06-26T00:09:00.298Z,53.47
2019-06-26T00:11:41.737Z,52.23
2019-06-26T00:14:11.141Z,46.77
2019-06-26T00:16:59.848Z,51.77
2019-06-26T00:19:48.349Z,49.93
2019-06-26T00:22:29.373Z,50.90
2019-06-26T00:25:11.794Z,50.17
2019-06-26T00:27:51.830Z,48.93
2019-06-26T00:30:34.004Z,48.73
2019-06-26T00:33:03.435Z,51.70
2019-06-26T00:35:51.891Z,55.63
2019-06-26T00:38:32.888Z,55.40
2019-06-26T00:41:14.368Z,55.40
2019-06-26T00:43:55.114Z,55.00
2019-06-26T00:46:36.730Z,53.97
2019-06-26T00:49:17.912Z,53.43
2019-06-26T00:51:59.259Z,58.10
2019-06-26T00:54:41.636Z,63.87
2019-06-26T00:57:25.045Z,60.97
2019-06-26T01:00:09.220Z,55.13
2019-06-26T01:02:50.560Z,64.47
2019-06-26T01:05:31.443Z,63.33
2019-06-26T01:08:12.964Z,61.67
2019-06-26T01:10:54.639Z,60.53
2019-06-26T01:13:36.981Z,65.87
2019-06-26T01:16:18.163Z,67.83
2019-06-26T01:19:01.287Z,80.43
2019-06-26T01:21:44.559Z,72.17
2019-06-26T01:24:25.505Z,70.20
2019-06-26T01:27:07.128Z,68.53
2019-06-26T01:29:51.187Z,57.70
2019-06-26T01:32:33.073Z,47.80
2019-06-26T01:35:14.214Z,45.60
2019-06-26T01:37:55.281Z,45.80
2019-06-26T01:40:36.864Z,51.30
2019-06-26T01:46:20.807Z,49.87
2019-06-26T01:51:40.853Z,48.33
2019-06-26T01:54:22.368Z,48.83
2019-06-26T01:57:03.223Z,46.60
2019-06-26T01:59:44.732Z,52.17
2019-06-26T02:02:26.529Z,49.27
2019-06-26T02:05:07.692Z,48.77
2019-06-26T02:07:51.137Z,46.93
2019-06-26T02:10:34.135Z,43.83
2019-06-26T02:13:15.099Z,45.67
2019-06-26T02:15:56.741Z,45.17
2019-06-26T02:21:31.602Z,39.73
2019-06-26T02:24:13.134Z,43.67
2019-06-26T02:26:56.162Z,42.33
2019-06-26T02:29:37.272Z,42.93
2019-06-26T02:32:17.948Z,46.13
2019-06-26T02:34:58.645Z,45.83
2019-06-26T02:37:39.280Z,46.33
2019-06-26T02:40:20.714Z,49.13
2019-06-26T02:43:06.526Z,46.47
2019-06-26T02:45:44.453Z,46.73
2019-06-26T02:48:25.598Z,42.83
2019-06-26T02:53:45.251Z,40.30
2019-06-26T02:56:26.756Z,40.37
2019-06-26T02:59:07.319Z,39.97
2019-06-26T03:01:48.877Z,37.20
2019-06-26T03:04:30.361Z,39.70
2019-06-26T03:07:11.926Z,42.07
2019-06-26T03:09:53.497Z,43.83
2019-06-26T03:12:33.175Z,46.37
2019-06-26T03:15:14.493Z,46.27
2019-06-26T03:17:56.428Z,44.10
2019-06-26T03:20:37.915Z,42.40
2019-06-26T03:23:19.456Z,44.00
2019-06-26T03:26:01.286Z,43.37
2019-06-26T03:28:42.729Z,43.27
2019-06-26T03:31:12.184Z,42.47
2019-06-26T03:34:00.654Z,47.57
2019-06-26T03:36:49.515Z,43.90
2019-06-26T03:39:31.381Z,42.03
2019-06-26T03:42:13.894Z,47.37
2019-06-26T03:44:55.524Z,47.67
2019-06-26T03:47:37.059Z,40.73
2019-06-26T03:50:19.340Z,40.93
2019-06-26T03:53:00.366Z,39.67
2019-06-26T03:55:42.505Z,41.90
2019-06-26T03:58:22.322Z,42.60
2019-06-26T04:01:04.335Z,42.07
2019-06-26T04:03:46.246Z,46.90
2019-06-26T04:06:30.683Z,46.23
2019-06-26T04:09:13.421Z,46.07
2019-06-26T04:11:56.608Z,44.97
2019-06-26T04:17:21.959Z,50.03
2019-06-26T04:20:03.630Z,54.10
2019-06-26T04:22:48.025Z,49.97
2019-06-26T04:25:29.734Z,55.67
2019-06-26T04:28:11.650Z,54.90
2019-06-26T04:30:53.743Z,56.83
2019-06-26T04:33:23.239Z,53.13
2019-06-26T04:36:11.938Z,49.30
2019-06-26T04:39:02.538Z,47.03
2019-06-26T04:41:46.525Z,52.43
2019-06-26T04:44:27.457Z,47.37
2019-06-26T04:47:09.238Z,48.73
2019-06-26T04:49:50.863Z,51.27
2019-06-26T04:52:32.189Z,44.20
2019-06-26T04:55:13.634Z,45.33
2019-06-26T04:57:54.271Z,43.30
2019-06-26T05:00:36.036Z,41.80
2019-06-26T05:03:17.607Z,39.13
2019-06-26T05:05:59.061Z,39.43
2019-06-26T05:08:40.520Z,34.37
2019-06-26T05:11:23.528Z,33.07
2019-06-26T05:14:05.032Z,34.13
2019-06-26T05:16:49.372Z,31.83
2019-06-26T05:22:42.914Z,33.60
2019-06-26T05:25:24.803Z,33.97
2019-06-26T05:28:08.446Z,33.33
2019-06-26T05:33:28.901Z,33.10
2019-06-26T05:36:10.405Z,30.70
2019-06-26T05:38:51.849Z,26.40
2019-06-26T05:41:35.345Z,27.47
2019-06-26T05:44:17.246Z,27.53
2019-06-26T05:46:58.952Z,26.90
2019-06-26T05:49:40.624Z,28.07
2019-06-26T05:52:22.067Z,27.50
2019-06-26T05:55:04.009Z,29.90
2019-06-26T05:57:48.399Z,28.47
2019-06-26T06:00:28.842Z,30.07
2019-06-26T06:03:09.566Z,30.67
2019-06-26T06:05:51.176Z,29.00
2019-06-26T06:08:32.758Z,28.37
2019-06-26T06:13:52.999Z,30.03
2019-06-26T06:16:22.358Z,31.60
2019-06-26T06:19:11.168Z,30.77
2019-06-26T06:21:59.854Z,30.93
2019-06-26T06:24:40.497Z,28.90
2019-06-26T06:27:21.620Z,27.63
2019-06-26T06:32:47.515Z,28.57
2019-06-26T06:35:29.104Z,30.27
2019-06-26T06:38:10.270Z,30.67
2019-06-26T06:40:51.933Z,34.13
2019-06-26T06:43:31.920Z,33.17
2019-06-26T06:46:12.855Z,33.87
2019-06-26T06:48:44.288Z,32.80
2019-06-26T06:51:32.677Z,33.50
2019-06-26T06:54:34.909Z,32.00
2019-06-26T06:57:04.439Z,32.17
2019-06-26T06:59:45.646Z,34.07
2019-06-26T07:02:26.676Z,30.83
2019-06-26T07:05:08.129Z,31.17
2019-06-26T07:07:49.967Z,28.80
2019-06-26T07:13:18.835Z,26.97
2019-06-26T07:16:01.865Z,27.07
2019-06-26T07:21:51.843Z,26.03
2019-06-26T07:27:37.554Z,23.73
2019-06-26T07:30:44.575Z,23.90
2019-06-26T07:33:13.426Z,25.53
2019-06-26T07:35:54.835Z,24.00
2019-06-26T07:38:36.680Z,23.80
2019-06-26T07:41:17.991Z,24.03
2019-06-26T07:43:47.426Z,24.73
2019-06-26T07:46:36.141Z,24.97
2019-06-26T07:49:17.721Z,24.60
2019-06-26T07:51:59.531Z,22.63
2019-06-26T07:54:41.858Z,22.70
2019-06-26T07:57:34.673Z,23.23
2019-06-26T08:03:04.626Z,22.30
2019-06-26T08:05:47.000Z,23.73
2019-06-26T08:11:27.437Z,23.07
2019-06-26T08:16:58.933Z,19.97
2019-06-26T08:19:40.442Z,20.80
2019-06-26T08:22:21.731Z,19.37
2019-06-26T08:30:48.633Z,20.03
2019-06-26T08:33:30.191Z,19.13
2019-06-26T08:36:10.881Z,17.67
2019-06-26T08:38:52.425Z,19.73
2019-06-26T08:41:33.332Z,19.37
2019-06-26T08:44:14.933Z,19.30
2019-06-26T08:46:56.440Z,18.63
2019-06-26T08:49:38.400Z,17.80
2019-06-26T08:57:42.415Z,20.40
2019-06-26T09:00:30.879Z,19.50
2019-06-26T09:05:58.767Z,18.33
2019-06-26T09:08:28.507Z,18.80
2019-06-26T09:11:19.016Z,20.63
2019-06-26T09:14:00.375Z,19.87
2019-06-26T09:19:44.478Z,18.63
2019-06-26T09:22:25.864Z,18.17
2019-06-26T09:25:20.949Z,18.13
2019-06-26T09:27:51.905Z,17.70
2019-06-26T09:30:33.133Z,18.93
2019-06-26T09:33:14.755Z,17.67
2019-06-26T09:35:56.737Z,19.00
2019-06-26T09:38:38.371Z,18.77
2019-06-26T09:41:19.842Z,18.40
2019-06-26T09:44:01.313Z,19.30
2019-06-26T09:46:43.713Z,19.00
2019-06-26T09:49:25.754Z,18.63
2019-06-26T09:52:07.649Z,16.90
2019-06-26T09:54:48.293Z,18.43
2019-06-26T09:57:30.050Z,19.93
2019-06-26T10:00:12.823Z,17.23
2019-06-26T10:02:54.532Z,18.23
2019-06-26T10:05:35.707Z,19.53
2019-06-26T10:08:17.248Z,21.93
2019-06-26T10:10:57.891Z,17.97
2019-06-26T10:13:37.599Z,15.73
2019-06-26T10:16:21.246Z,16.10
2019-06-26T10:19:10.291Z,14.53
2019-06-26T10:21:45.308Z,15.47
2019-06-26T10:24:26.861Z,16.60
2019-06-26T10:27:09.935Z,13.53
2019-06-26T10:29:51.547Z,13.27
2019-06-26T10:32:33.384Z,13.50
2019-06-26T10:35:02.817Z,17.03
2019-06-26T10:40:52.870Z,15.60
2019-06-26T10:43:34.510Z,15.13
2019-06-26T10:46:15.975Z,15.53
2019-06-26T10:48:57.344Z,14.77
2019-06-26T10:57:16.380Z,15.57
2019-06-26T11:00:05.760Z,14.20
2019-06-26T11:02:54.219Z,14.57
2019-06-26T11:05:42.949Z,17.07
2019-06-26T11:08:25.129Z,14.67
2019-06-26T11:11:06.460Z,17.67
2019-06-26T11:13:47.993Z,18.80
2019-06-26T11:16:29.502Z,16.97
2019-06-26T11:19:11.068Z,17.25
2019-06-26T11:21:52.485Z,18.45
2019-06-26T11:24:22.380Z,18.77
2019-06-26T11:27:10.865Z,17.05
2019-06-26T11:29:59.801Z,16.43
2019-06-26T11:32:41.544Z,18.37
2019-06-26T11:35:23.130Z,17.57
2019-06-26T11:38:04.724Z,19.57
2019-06-26T11:40:46.120Z,20.87
2019-06-26T11:43:27.312Z,18.73
2019-06-26T11:46:08.116Z,18.43
2019-06-26T11:48:48.187Z,20.43
2019-06-26T11:51:29.175Z,21.80
2019-06-26T11:54:10.587Z,21.33
2019-06-26T11:59:35.969Z,17.17
2019-06-26T12:02:17.600Z,18.83
2019-06-26T12:04:47.080Z,17.23
2019-06-26T12:10:35.264Z,16.60
2019-06-26T12:13:16.376Z,17.23
2019-06-26T12:15:59.949Z,18.50
2019-06-26T12:18:40.277Z,15.97
2019-06-26T12:21:21.835Z,18.40
2019-06-26T12:26:52.975Z,17.67
2019-06-26T12:29:34.803Z,18.50
2019-06-26T12:32:15.836Z,17.37
2019-06-26T12:34:56.607Z,18.97
2019-06-26T12:37:38.508Z,20.23
2019-06-26T12:40:19.975Z,15.53
2019-06-26T12:43:01.547Z,18.07
2019-06-26T12:45:43.345Z,17.42
2019-06-26T12:48:25.573Z,16.95
2019-06-26T12:51:06.291Z,19.20
2019-06-26T12:56:31.926Z,16.80
2019-06-26T12:59:13.534Z,14.93
2019-06-26T13:01:57.320Z,17.45
2019-06-26T13:04:44.485Z,11.90
2019-06-26T13:07:23.299Z,12.40
2019-06-26T13:10:07.375Z,13.53
2019-06-26T13:12:47.639Z,12.93
2019-06-26T13:15:29.524Z,15.50
2019-06-26T13:18:10.953Z,16.93
2019-06-26T13:20:53.745Z,15.63
2019-06-26T13:23:35.178Z,13.75
2019-06-26T13:26:17.020Z,12.00
2019-06-26T13:31:44.376Z,11.38
2019-06-26T13:34:27.299Z,12.43
2019-06-26T13:37:09.033Z,13.08
2019-06-26T13:39:50.045Z,9.48
2019-06-26T13:42:31.701Z,10.10
2019-06-26T13:45:12.903Z,9.83
2019-06-26T13:47:54.664Z,9.85
2019-06-26T13:50:36.184Z,13.25
2019-06-26T13:53:17.399Z,9.28
2019-06-26T13:55:58.593Z,8.15
2019-06-26T13:58:40.343Z,11.83
2019-06-26T14:01:23.217Z,11.83
2019-06-26T14:04:04.817Z,12.05
2019-06-26T14:06:46.421Z,13.60
2019-06-26T14:09:16.003Z,10.15
2019-06-26T14:15:00.431Z,12.78
2019-06-26T14:17:41.431Z,9.18
2019-06-26T14:20:22.991Z,15.13
2019-06-26T14:23:03.964Z,15.25
2019-06-26T14:25:45.574Z,14.90
2019-06-26T14:28:14.978Z,13.05
2019-06-26T14:31:03.714Z,12.35
2019-06-26T14:33:47.307Z,13.60
2019-06-26T14:36:29.772Z,13.55
2019-06-26T14:39:13.198Z,8.35
2019-06-26T14:41:56.642Z,9.30
2019-06-26T14:44:37.558Z,13.83
2019-06-26T14:47:19.238Z,11.18
2019-06-26T14:50:00.992Z,9.75
2019-06-26T14:52:45.025Z,14.13
2019-06-26T14:55:23.865Z,11.75
2019-06-26T14:58:05.329Z,15.28
2019-06-26T15:00:49.052Z,10.48
2019-06-26T15:03:30.268Z,11.53
2019-06-26T15:06:16.857Z,12.58
2019-06-26T15:08:56.797Z,11.20
2019-06-26T15:11:39.774Z,11.25
2019-06-26T15:17:10.088Z,12.63
2019-06-26T15:19:51.343Z,11.25
2019-06-26T15:22:32.932Z,18.37
2019-06-26T15:25:14.151Z,9.28
2019-06-26T15:27:55.961Z,10.63
2019-06-26T15:30:37.323Z,9.53
2019-06-26T15:38:54.080Z,8.50
2019-06-26T15:44:14.553Z,11.00
2019-06-26T15:46:55.788Z,7.60
2019-06-26T15:49:37.703Z,9.68
2019-06-26T15:52:19.413Z,13.68
2019-06-26T15:55:01.030Z,9.15
2019-06-26T15:57:42.310Z,9.45
2019-06-26T16:00:23.696Z,9.80
2019-06-26T16:03:05.468Z,12.00
2019-06-26T16:05:46.621Z,11.28
2019-06-26T16:08:27.999Z,11.38
2019-06-26T16:10:57.528Z,10.85
2019-06-26T16:13:46.301Z,9.30
2019-06-26T16:16:27.835Z,8.80
2019-06-26T16:22:12.608Z,14.18
2019-06-26T16:24:54.439Z,12.50
2019-06-26T16:27:35.828Z,9.80
2019-06-26T16:33:20.093Z,13.53
2019-06-26T16:36:01.365Z,10.28
2019-06-26T16:38:42.930Z,9.45
2019-06-26T16:44:07.778Z,12.13
2019-06-26T16:46:48.856Z,11.30
2019-06-26T16:49:31.079Z,9.68
2019-06-26T16:52:12.931Z,9.78
2019-06-26T16:54:42.398Z,12.30
2019-06-26T16:57:11.812Z,8.65
2019-06-26T17:00:09.515Z,10.30
2019-06-26T17:02:41.958Z,10.38
2019-06-26T17:05:23.800Z,9.88
2019-06-26T17:08:05.229Z,6.47
2019-06-26T17:10:34.978Z,8.45
2019-06-26T17:13:25.688Z,11.90
2019-06-26T17:16:14.185Z,10.03
2019-06-26T17:18:54.735Z,11.03
2019-06-26T17:21:36.171Z,14.15
2019-06-26T17:24:17.938Z,9.18
2019-06-26T17:26:59.621Z,12.43
2019-06-26T17:29:40.864Z,11.35
2019-06-26T17:32:21.466Z,9.30
2019-06-26T17:35:05.759Z,10.25
2019-06-26T17:40:31.280Z,12.47
2019-06-26T17:43:13.074Z,12.82
2019-06-26T17:45:54.935Z,10.28
2019-06-26T17:48:39.264Z,8.50
2019-06-26T17:51:24.830Z,9.40
2019-06-26T17:54:06.572Z,10.70
2019-06-26T17:56:47.745Z,11.80
2019-06-26T17:59:17.419Z,12.13
2019-06-26T18:04:57.026Z,13.10
2019-06-26T18:07:37.007Z,16.47
2019-06-26T18:10:18.395Z,14.47
2019-06-26T18:15:38.727Z,13.30
2019-06-26T18:18:20.401Z,14.13
2019-06-26T18:21:01.856Z,15.60
2019-06-26T18:26:27.909Z,15.70
2019-06-26T18:28:57.245Z,12.77
2019-06-26T18:31:45.710Z,11.63
2019-06-26T18:34:27.374Z,15.57
2019-06-26T18:37:08.664Z,14.67
2019-06-26T18:39:51.363Z,14.90
2019-06-26T18:42:31.230Z,14.03
2019-06-26T18:45:12.969Z,12.10
2019-06-26T18:47:54.055Z,16.90
2019-06-26T18:50:35.428Z,10.13
2019-06-26T18:53:16.991Z,12.43
2019-06-26T18:55:59.880Z,17.10
2019-06-26T18:58:39.846Z,12.50
2019-06-26T19:01:21.467Z,15.37
2019-06-26T19:04:02.873Z,12.17
2019-06-26T19:06:44.212Z,18.03
2019-06-26T19:09:25.830Z,13.43
2019-06-26T19:12:06.756Z,17.27
2019-06-26T19:14:48.497Z,16.50
2019-06-26T19:17:32.280Z,15.17
2019-06-26T19:20:15.367Z,12.43
2019-06-26T19:22:56.976Z,17.67
2019-06-26T19:25:38.676Z,15.37
2019-06-26T19:28:23.127Z,12.73
2019-06-26T19:31:04.014Z,18.47
2019-06-26T19:33:45.667Z,12.07
2019-06-26T19:36:28.695Z,12.47
2019-06-26T19:39:08.930Z,13.40
2019-06-26T19:41:50.688Z,15.73
2019-06-26T19:47:10.829Z,15.53
2019-06-26T19:52:32.158Z,11.73
2019-06-26T19:55:13.662Z,10.83
2019-06-26T19:57:55.160Z,16.57
2019-06-26T20:00:36.401Z,11.07
2019-06-26T20:03:20.164Z,14.30
2019-06-26T20:06:02.072Z,17.43
2019-06-26T20:11:51.130Z,14.47
2019-06-26T20:14:32.890Z,10.03
2019-06-26T20:17:14.313Z,13.10
2019-06-26T20:19:56.002Z,13.87
2019-06-26T20:22:37.578Z,12.67
2019-06-26T20:25:19.105Z,14.00
2019-06-26T20:28:00.682Z,14.73
2019-06-26T20:30:42.551Z,13.27
2019-06-26T20:33:24.124Z,14.27
2019-06-26T20:36:05.451Z,16.03
2019-06-26T20:38:47.835Z,12.00
2019-06-26T20:41:29.209Z,10.43
2019-06-26T20:44:10.270Z,14.33
2019-06-26T20:46:51.174Z,11.50
2019-06-26T20:49:33.067Z,12.43
2019-06-26T20:52:15.525Z,11.90
2019-06-26T20:55:01.991Z,11.67
2019-06-26T20:57:39.645Z,12.60
2019-06-26T21:00:22.617Z,13.33
2019-06-26T21:03:03.076Z,16.60
2019-06-26T21:05:46.120Z,10.90
2019-06-26T21:08:29.407Z,17.50
2019-06-26T21:11:08.881Z,16.47
2019-06-26T21:13:50.406Z,16.67
2019-06-26T21:16:19.678Z,12.33
2019-06-26T21:19:08.243Z,13.27
2019-06-26T21:21:49.662Z,19.77
2019-06-26T21:24:32.966Z,8.83
2019-06-26T21:27:14.713Z,18.37
2019-06-26T21:29:56.073Z,11.67
2019-06-26T21:32:37.308Z,11.67
2019-06-26T21:35:18.395Z,12.77
2019-06-26T21:37:59.795Z,18.47
2019-06-26T21:40:41.146Z,11.93
2019-06-26T21:43:21.751Z,10.20
2019-06-26T21:46:02.529Z,15.53
2019-06-26T21:48:44.740Z,14.97
2019-06-26T21:51:25.167Z,15.07
2019-06-26T21:54:06.261Z,18.20
2019-06-26T21:56:46.966Z,14.40
2019-06-26T21:59:27.903Z,11.20
2019-06-26T22:01:57.118Z,16.40
2019-06-26T22:04:45.409Z,15.37
2019-06-26T22:10:21.224Z,15.97
2019-06-26T22:13:02.659Z,12.10
2019-06-26T22:15:43.377Z,15.20
2019-06-26T22:18:24.055Z,12.47
2019-06-26T22:21:05.401Z,11.73
2019-06-26T22:23:46.459Z,12.83
2019-06-26T22:26:27.723Z,12.67
2019-06-26T22:29:08.852Z,15.70
2019-06-26T22:31:50.241Z,15.97
2019-06-26T22:34:31.019Z,17.97
2019-06-26T22:37:11.705Z,14.90
2019-06-26T22:39:53.258Z,11.90
2019-06-26T22:42:33.967Z,18.40
2019-06-26T22:45:15.181Z,16.03
2019-06-26T22:47:57.334Z,14.40
2019-06-26T22:50:38.403Z,13.20
2019-06-26T22:53:19.330Z,16.43
2019-06-26T22:56:07.622Z,13.77
2019-06-26T22:58:42.700Z,13.87
2019-06-26T23:01:23.804Z,17.93
2019-06-26T23:04:04.725Z,13.47
2019-06-26T23:06:45.705Z,15.30
2019-06-26T23:09:27.096Z,16.17
2019-06-26T23:12:07.758Z,15.27
2019-06-26T23:14:47.511Z,14.73
2019-06-26T23:17:29.127Z,13.03
2019-06-26T23:20:10.092Z,11.83
2019-06-26T23:22:51.544Z,11.23
2019-06-26T23:25:33.007Z,13.30
2019-06-26T23:28:12.920Z,13.43
2019-06-26T23:30:53.918Z,13.03
2019-06-26T23:33:34.639Z,10.17
2019-06-26T23:36:15.300Z,12.93
2019-06-26T23:38:55.986Z,11.10
2019-06-26T23:41:36.827Z,14.47
2019-06-26T23:44:17.848Z,19.50
2019-06-26T23:46:58.957Z,18.00
2019-06-26T23:49:39.753Z,15.63
2019-06-26T23:52:21.309Z,12.53
2019-06-26T23:55:02.618Z,14.60
2019-06-26T23:57:58.068Z,16.13
